WAPP

Details ICAO WAPP (AMQ)
Name Ambon Pattimura
Region Indonesia
Timezone Asia/Jayapura (UTC+9.0)
Plans Departing 86
Arriving 80
Stats Elevation 33 ft / 10 m (AMSL)
Location -3.710300° 128.090000°
Runways 1
Magnetic Variation 1.079° E
Sunrise 2018-12-17 21:15:15 UTC / 2018-12-18 06:15:15 Local
Sunset 2018-12-18 09:35:23 UTC / 2018-12-18 18:35:23 Local
Advertisement - Login to hide

Runways

ID Width Length Bearing (true/mag) Surface Threshold Overrun Markings Lighting
04 148 ft / 45 m 8,223 ft / 2,506 m 44.85° / 43.77° ASPHALT 0 ft / 0 m 197 ft / 60 m PREC-APP EDGE THRESHOLD MALS REIL-OMNI
22 148 ft / 45 m 8,223 ft / 2,506 m 224.85° / 223.77° ASPHALT 0 ft / 0 m 197 ft / 60 m PREC-APP EDGE THRESHOLD MALS REIL-OMNI

Map

Weather


0- 5 10 15 20 25 30 35+ Temperature / °C

Clouds and Precipitation
Forecast for 2018-12-18 12:00 UTC. Updated 6 hours ago

Ground ~20,000 ft ~40,000 ft Winds

METAR

WAPP 181400Z 33007KT 9999 FEW019 26/24 Q1011 NOSIG

TAF

Not found

Frequencies

Recorded 125.40 MHz ATIS
Approach 121.00 MHz AMBON Approach
Tower 122.20 MHz Pattimura Tower
Warning: Do not use this data for real-world aviation or navigation. No guarantee of current accuracy is given.